Time;durP1;ratioP1;P1;durP2;ratioP2;P2;SDS_P1;SDS_P2;PMS_P1;PMS_P2;Temp;Humidity;BMP_temperature;BMP_pressure;BME280_temperature;BME280_humidity;BME280_pressure;Samples;Min_cycle;Max_cycle;Signal;HPM_P1;HPM_P2
2021/12/26 00:00:29;;;;;;;25.33;7.15;;;;;;;9.05;100.00;99117.16;5077586;28;20052;-51
2021/12/26 00:02:59;;;;;;;24.17;6.45;;;;;;;8.97;100.00;99119.56;5076664;28;20099;-50
2021/12/26 00:05:29;;;;;;;20.77;6.15;;;;;;;8.97;100.00;99123.03;5076358;28;20103;-51
2021/12/26 00:07:57;;;;;;;26.92;7.05;;;;;;;8.92;100.00;99128.66;5076566;28;20064;-51
2021/12/26 00:10:28;;;;;;;30.17;5.45;;;;;;;8.89;100.00;99128.94;5077683;28;20056;-51
2021/12/26 00:12:57;;;;;;;23.70;5.18;;;;;;;8.83;100.00;99129.41;5076618;28;20067;-50
2021/12/26 00:15:25;;;;;;;18.27;5.80;;;;;;;8.86;100.00;99129.16;5076193;28;20538;-50
2021/12/26 00:17:54;;;;;;;27.67;5.78;;;;;;;8.82;100.00;99126.88;5076219;28;20138;-50
2021/12/26 00:20:23;;;;;;;28.90;6.13;;;;;;;8.87;100.00;99122.91;5076118;28;20064;-49
2021/12/26 00:22:52;;;;;;;30.52;8.00;;;;;;;8.78;100.00;99126.25;5076502;28;20064;-51
2021/12/26 00:25:25;;;;;;;29.70;8.27;;;;;;;8.72;100.00;99126.72;5076882;28;20130;-50
2021/12/26 00:27:54;;;;;;;31.73;7.03;;;;;;;8.68;100.00;99125.28;5076714;28;20056;-50
2021/12/26 00:30:23;;;;;;;24.88;5.60;;;;;;;8.73;100.00;99123.97;5076500;28;20062;-49
2021/12/26 00:32:51;;;;;;;31.88;5.32;;;;;;;8.70;100.00;99129.47;5076117;28;20067;-49
2021/12/26 00:35:21;;;;;;;27.17;6.32;;;;;;;8.70;100.00;99128.66;5077261;28;20053;-50
2021/12/26 00:37:51;;;;;;;50.28;15.20;;;;;;;8.58;100.00;99132.22;5076374;28;20060;-51
2021/12/26 00:40:21;;;;;;;20.25;6.60;;;;;;;8.59;100.00;99139.19;5075758;28;20512;-51
2021/12/26 00:42:50;;;;;;;39.05;5.32;;;;;;;8.55;100.00;99131.47;5076784;28;20065;-51
2021/12/26 00:45:19;;;;;;;27.52;5.32;;;;;;;8.53;100.00;99133.41;5075671;28;20546;-50
2021/12/26 00:47:47;;;;;;;25.42;4.93;;;;;;;8.55;100.00;99130.66;5076150;28;20110;-49
2021/12/26 00:50:19;;;;;;;21.35;4.70;;;;;;;8.58;100.00;99130.41;5075686;28;20053;-50
2021/12/26 00:52:47;;;;;;;;;;;;;;;8.57;100.00;99127.91;5077357;28;20060;-50
2021/12/26 00:55:18;;;;;;;17.02;4.07;;;;;;;8.48;100.00;99127.63;5076613;28;19920;-51
2021/12/26 00:57:46;;;;;;;27.35;8.48;;;;;;;8.46;100.00;99131.38;5075398;28;20072;-51
2021/12/26 01:00:17;;;;;;;32.30;5.72;;;;;;;8.47;100.00;99128.59;5075917;28;20056;-48
2021/12/26 01:02:46;;;;;;;27.55;5.25;;;;;;;8.52;100.00;99130.88;5076012;28;20061;-51
2021/12/26 01:05:16;;;;;;;23.75;5.75;;;;;;;8.59;100.00;99131.25;5076305;28;20056;-50
2021/12/26 01:07:55;;;;;;;24.60;4.28;;;;;;;8.66;100.00;99133.34;5075704;28;20052;-50
2021/12/26 01:10:26;;;;;;;22.27;5.40;;;;;;;8.64;100.00;99137.91;5075442;28;20060;-51
2021/12/26 01:12:55;;;;;;;61.55;17.48;;;;;;;8.62;100.00;99139.78;5075113;28;20064;-51
2021/12/26 01:15:24;;;;;;;27.08;8.07;;;;;;;8.58;100.00;99143.63;5075967;28;20127;-49
2021/12/26 01:17:57;;;;;;;32.58;6.90;;;;;;;8.53;100.00;99136.06;5074934;28;20056;-49
2021/12/26 01:20:41;;;;;;;20.27;6.68;;;;;;;8.52;100.00;99147.59;5076389;28;20060;-50
2021/12/26 01:23:10;;;;;;;24.73;4.88;;;;;;;8.60;100.00;99140.88;5076266;28;20060;-49
2021/12/26 01:25:40;;;;;;;24.48;4.32;;;;;;;8.62;100.00;99141.59;5076225;28;20052;-48
2021/12/26 01:28:08;;;;;;;29.70;5.80;;;;;;;8.67;100.00;99145.56;5075343;28;20056;-50
2021/12/26 01:30:39;;;;;;;27.65;4.30;;;;;;;8.70;100.00;99155.09;5074985;28;20056;-51
2021/12/26 01:33:07;;;;;;;30.17;5.72;;;;;;;8.69;100.00;99148.09;5075025;28;20060;-50
2021/12/26 01:35:36;;;;;;;25.48;4.85;;;;;;;8.63;100.00;99148.59;5075476;28;20056;-49
2021/12/26 01:38:04;;;;;;;30.35;4.90;;;;;;;8.68;100.00;99149.09;5074800;28;20053;-50
2021/12/26 01:40:36;;;;;;;39.05;5.65;;;;;;;8.73;100.00;99144.28;5075092;28;20064;-51
2021/12/26 01:43:06;;;;;;;29.83;4.38;;;;;;;8.65;100.00;99147.50;5075615;28;20056;-49
2021/12/26 01:45:34;;;;;;;20.83;4.28;;;;;;;8.58;100.00;99145.44;5074697;28;20067;-51
2021/12/26 01:48:04;;;;;;;21.63;4.47;;;;;;;8.57;100.00;99154.31;5074602;28;20061;-48
2021/12/26 01:50:33;;;;;;;27.85;4.60;;;;;;;8.51;100.00;99160.94;5075196;28;20060;-49
2021/12/26 01:53:02;;;;;;;25.40;4.07;;;;;;;8.52;100.00;99158.16;5074830;28;20060;-50
2021/12/26 01:55:39;;;;;;;32.42;4.25;;;;;;;8.55;100.00;99157.91;5074892;28;20064;-51
2021/12/26 01:58:14;;;;;;;28.60;4.68;;;;;;;8.57;100.00;99155.16;5075674;28;20055;-49
2021/12/26 02:00:44;;;;;;;25.95;4.60;;;;;;;8.55;100.00;99155.28;5074196;28;20076;-50
2021/12/26 02:03:12;;;;;;;35.38;4.75;;;;;;;8.64;100.00;99155.53;5073441;28;20060;-48
2021/12/26 02:05:40;;;;;;;32.55;6.38;;;;;;;8.68;100.00;99154.38;5074437;28;20060;-51
2021/12/26 02:08:09;;;;;;;26.77;6.50;;;;;;;8.63;100.00;99164.44;5075243;28;20071;-51
2021/12/26 02:10:38;;;;;;;21.33;4.60;;;;;;;8.53;100.00;99161.66;5074321;28;20067;-51
2021/12/26 02:13:06;;;;;;;24.17;4.72;;;;;;;8.44;100.00;99168.47;5074671;28;20052;-51
2021/12/26 02:15:37;;;;;;;22.13;4.97;;;;;;;8.38;100.00;99161.78;5074304;28;20126;-51
2021/12/26 02:18:06;;;;;;;28.98;4.43;;;;;;;8.28;100.00;99171.34;5074075;28;20065;-51
2021/12/26 02:20:47;;;;;;;18.92;4.10;;;;;;;8.37;100.00;99175.13;5074811;28;20151;-50
2021/12/26 02:23:23;;;;;;;24.73;3.35;;;;;;;8.41;100.00;99176.59;5073839;28;20135;-51
2021/12/26 02:28:36;;;;;;;31.13;4.10;;;;;;;8.51;100.00;99177.63;5074753;28;20056;-49
2021/12/26 02:31:06;;;;;;;23.15;3.88;;;;;;;8.44;100.00;99170.25;5074947;28;20075;-51
2021/12/26 02:33:34;;;;;;;23.35;4.50;;;;;;;8.46;100.00;99176.28;5073829;28;20090;-49
2021/12/26 02:36:05;;;;;;;30.42;5.15;;;;;;;8.52;100.00;99173.16;5074894;28;20060;-51
2021/12/26 02:38:34;;;;;;;34.38;6.15;;;;;;;8.62;100.00;99178.59;5073776;28;20060;-51
2021/12/26 02:41:02;;;;;;;21.75;3.47;;;;;;;8.68;100.00;99179.00;5075022;28;20056;-51
2021/12/26 02:43:32;;;;;;;26.77;5.38;;;;;;;8.72;100.00;99169.03;5075065;28;20052;-50
2021/12/26 02:46:06;;;;;;;29.45;4.20;;;;;;;8.65;100.00;99173.09;5074829;28;20131;-51
2021/12/26 02:48:34;;;;;;;26.30;3.58;;;;;;;8.58;100.00;99166.59;5074847;28;20053;-51
2021/12/26 02:51:05;;;;;;;25.58;4.68;;;;;;;8.63;100.00;99164.44;5073943;28;20067;-51
2021/12/26 02:53:34;;;;;;;20.67;3.58;;;;;;;8.63;100.00;99149.41;5074388;28;20060;-51
2021/12/26 02:56:03;;;;;;;27.60;4.13;;;;;;;8.58;100.00;99159.50;5074685;28;20056;-51
2021/12/26 02:58:32;;;;;;;23.25;3.50;;;;;;;8.49;100.00;99153.09;5073864;28;20071;-49
2021/12/26 03:01:04;;;;;;;25.48;3.05;;;;;;;8.41;100.00;99155.44;5073821;28;20053;-51
2021/12/26 03:03:32;;;;;;;;;;;;;;;8.48;100.00;99148.78;5073940;28;20482;-51
2021/12/26 03:06:03;;;;;;;17.33;3.70;;;;;;;8.52;100.00;99150.25;5074085;28;19927;-50
2021/12/26 03:08:33;;;;;;;31.73;6.15;;;;;;;8.54;100.00;99140.38;5073506;28;20056;-51
2021/12/26 03:11:01;;;;;;;27.20;4.35;;;;;;;8.42;100.00;99135.97;5074030;28;20052;-48
2021/12/26 03:13:29;;;;;;;24.30;3.35;;;;;;;8.40;100.00;99137.91;5075120;28;20060;-51
2021/12/26 03:15:58;;;;;;;19.98;2.85;;;;;;;8.44;100.00;99138.53;5078185;28;20056;-51
2021/12/26 03:18:26;;;;;;;33.60;3.25;;;;;;;8.49;100.00;99139.03;5077636;28;20071;-51
2021/12/26 03:20:54;;;;;;;33.10;4.13;;;;;;;8.51;100.00;99124.75;5077759;28;20061;-50
2021/12/26 03:23:24;;;;;;;21.08;2.80;;;;;;;8.49;100.00;99128.47;5077441;28;20053;-51
2021/12/26 03:25:57;;;;;;;23.42;3.60;;;;;;;8.62;100.00;99131.03;5078001;28;20071;-51
2021/12/26 03:28:25;;;;;;;;;;;;;;;8.57;100.00;99141.09;5078976;28;20052;-51
2021/12/26 03:30:53;;;;;;;26.15;3.70;;;;;;;8.64;100.00;99144.97;5077596;28;19924;-51
2021/12/26 03:33:22;;;;;;;19.58;2.70;;;;;;;8.67;100.00;99152.66;5077264;28;20056;-50
2021/12/26 03:35:51;;;;;;;31.20;4.00;;;;;;;8.66;100.00;99164.22;5077498;28;20488;-51
2021/12/26 03:38:21;;;;;;;30.30;5.20;;;;;;;8.62;100.00;99162.75;5077079;28;20068;-51
2021/12/26 03:40:53;;;;;;;29.08;3.53;;;;;;;8.63;100.00;99164.44;5078294;28;20060;-50
2021/12/26 03:43:23;;;;;;;24.15;3.38;;;;;;;8.58;100.00;99171.88;5076876;28;20059;-51
2021/12/26 03:45:56;;;;;;;28.15;4.60;;;;;;;8.54;100.00;99160.69;5077953;28;20053;-50
2021/12/26 03:48:25;;;;;;;20.90;3.25;;;;;;;8.51;100.00;99172.34;5077603;28;20064;-50
2021/12/26 03:50:54;;;;;;;27.17;3.30;;;;;;;8.50;100.00;99168.00;5077224;28;20061;-51
2021/12/26 03:53:23;;;;;;;24.83;3.85;;;;;;;8.49;100.00;99173.38;5077176;28;20060;-51
2021/12/26 03:55:51;;;;;;;28.35;3.13;;;;;;;8.42;100.00;99167.69;5076853;28;20068;-51
2021/12/26 03:58:20;;;;;;;25.65;3.35;;;;;;;8.38;100.00;99171.53;5076783;28;20048;-51
2021/12/26 04:00:50;;;;;;;33.10;3.17;;;;;;;8.34;100.00;99160.34;5077061;28;20052;-51
2021/12/26 04:03:19;;;;;;;34.42;2.95;;;;;;;8.35;100.00;99163.81;5076452;28;20053;-50
2021/12/26 04:05:47;;;;;;;30.10;3.70;;;;;;;8.31;100.00;99159.75;5076566;28;20060;-50
2021/12/26 04:08:15;;;;;;;26.52;4.43;;;;;;;8.26;100.00;99151.31;5077187;28;20064;-51
2021/12/26 04:10:43;;;;;;;24.48;3.65;;;;;;;8.27;100.00;99152.97;5076863;28;20060;-48
2021/12/26 04:13:12;;;;;;;31.95;3.35;;;;;;;8.13;100.00;99152.19;5077641;28;20052;-51
2021/12/26 04:15:41;;;;;;;22.40;3.47;;;;;;;8.12;100.00;99153.16;5076566;28;20068;-51
2021/12/26 04:18:11;;;;;;;25.08;3.20;;;;;;;7.98;100.00;99148.03;5077395;28;20056;-50
2021/12/26 04:20:39;;;;;;;26.15;3.95;;;;;;;8.00;100.00;99161.97;5076408;28;20063;-48
2021/12/26 04:23:08;;;;;;;29.05;3.55;;;;;;;7.96;100.00;99144.69;5076357;28;20056;-51
2021/12/26 04:25:36;;;;;;;11.40;2.40;;;;;;;7.96;100.00;99164.00;5076381;28;20052;-50
2021/12/26 04:28:05;;;;;;;27.48;3.20;;;;;;;7.93;100.00;99158.09;5076269;28;20057;-51
2021/12/26 04:30:33;;;;;;;18.77;4.07;;;;;;;7.98;100.00;99163.88;5076218;28;20053;-51
2021/12/26 04:33:04;;;;;;;21.63;3.00;;;;;;;7.98;100.00;99163.88;5076149;28;20052;-51
2021/12/26 04:35:34;;;;;;;33.58;3.83;;;;;;;7.92;100.00;99167.00;5075888;28;20071;-51
2021/12/26 04:38:02;;;;;;;25.77;4.40;;;;;;;7.90;100.00;99161.81;5076417;28;20053;-49
2021/12/26 04:40:30;;;;;;;22.65;3.05;;;;;;;7.86;100.00;99156.88;5076320;28;20060;-51
2021/12/26 04:42:58;;;;;;;27.88;4.45;;;;;;;7.82;100.00;99159.72;5076291;28;20068;-49
2021/12/26 04:45:26;;;;;;;19.52;2.65;;;;;;;7.67;100.00;99155.53;5075600;28;20064;-51
2021/12/26 04:47:55;;;;;;;20.13;4.00;;;;;;;7.75;100.00;99165.53;5076175;28;20057;-51
2021/12/26 04:50:27;;;;;;;16.27;2.78;;;;;;;7.68;100.00;99164.28;5075814;28;20048;-50
2021/12/26 04:52:57;;;;;;;21.77;4.40;;;;;;;7.61;100.00;99155.97;5076720;28;20056;-51
2021/12/26 04:55:27;;;;;;;12.02;2.17;;;;;;;7.57;100.00;99157.16;5075455;28;20060;-51
2021/12/26 04:57:56;;;;;;;30.30;3.05;;;;;;;7.67;100.00;99165.28;5075954;28;20496;-51
2021/12/26 05:00:28;;;;;;;23.48;2.92;;;;;;;7.65;100.00;99167.16;5075612;28;20056;-51
2021/12/26 05:02:57;;;;;;;;;;;;;;;7.70;100.00;99171.16;5075750;28;20056;-51
2021/12/26 05:05:27;;;;;;;16.50;2.38;;;;;;;7.68;100.00;99174.84;5075497;28;19920;-51
2021/12/26 05:07:57;;;;;;;15.32;2.70;;;;;;;7.59;100.00;99179.84;5075505;28;20538;-49
2021/12/26 05:10:28;;;;;;;14.60;2.58;;;;;;;7.49;100.00;99180.59;5076054;28;20053;-51
2021/12/26 05:12:57;;;;;;;15.57;2.35;;;;;;;7.58;100.00;99177.28;5076046;28;20083;-51
2021/12/26 05:15:26;;;;;;;10.18;1.55;;;;;;;7.61;100.00;99169.16;5075633;28;20059;-51
2021/12/26 05:17:56;;;;;;;19.20;2.45;;;;;;;7.56;100.00;99187.13;5075971;28;20057;-51
2021/12/26 05:20:25;;;;;;;17.40;2.55;;;;;;;7.55;100.00;99181.00;5075627;28;20064;-49
2021/12/26 05:22:55;;;;;;;15.77;2.17;;;;;;;7.42;100.00;99170.47;5075153;28;20078;-49
2021/12/26 05:25:26;;;;;;;13.73;3.00;;;;;;;7.39;100.00;99165.41;5074801;28;20052;-50
2021/12/26 05:27:55;;;;;;;22.80;2.40;;;;;;;7.46;100.00;99172.91;5074814;28;20139;-51
2021/12/26 05:30:24;;;;;;;13.00;1.80;;;;;;;7.37;100.00;99169.94;5075305;28;20053;-51
2021/12/26 05:32:53;;;;;;;19.80;2.88;;;;;;;7.49;100.00;99170.06;5075546;28;20177;-52
2021/12/26 05:35:21;;;;;;;20.58;3.13;;;;;;;7.43;100.00;99169.53;5075653;28;20106;-52
2021/12/26 05:37:49;;;;;;;19.48;2.45;;;;;;;7.43;100.00;99180.09;5074232;28;20063;-51
2021/12/26 05:40:18;;;;;;;21.65;2.80;;;;;;;7.54;100.00;99175.84;5075146;28;20060;-54
2021/12/26 05:42:47;;;;;;;26.40;2.50;;;;;;;7.47;100.00;99174.59;5074751;28;20052;-51
2021/12/26 05:45:16;;;;;;;22.42;3.58;;;;;;;7.50;100.00;99169.94;5075318;28;20063;-51
2021/12/26 05:47:44;;;;;;;14.25;3.25;;;;;;;7.51;100.00;99171.59;5075247;28;20139;-51
2021/12/26 05:50:15;;;;;;;23.25;3.45;;;;;;;7.56;100.00;99168.66;5075006;28;20048;-49
2021/12/26 05:52:45;;;;;;;30.58;2.88;;;;;;;7.66;100.00;99174.97;5074436;28;20057;-51
2021/12/26 05:55:14;;;;;;;20.27;3.30;;;;;;;7.62;100.00;99168.22;5074644;28;20512;-49
2021/12/26 05:57:43;;;;;;;16.45;2.30;;;;;;;7.66;100.00;99174.97;5074812;28;20059;-51
2021/12/26 06:00:17;;;;;;;;;;;;;;;7.67;100.00;99174.03;5074977;28;20118;-49
2021/12/26 06:02:45;;;;;;;24.80;2.65;;;;;;;7.76;100.00;99176.00;5074254;28;20010;-49
2021/12/26 06:05:13;;;;;;;22.45;3.88;;;;;;;7.70;100.00;99172.94;5075230;28;20052;-49
2021/12/26 06:07:41;;;;;;;33.05;4.30;;;;;;;7.70;100.00;99176.44;5074715;28;20177;-50
2021/12/26 06:10:10;;;;;;;20.88;3.45;;;;;;;7.70;100.00;99172.94;5074378;28;20053;-50
2021/12/26 06:12:38;;;;;;;17.77;2.92;;;;;;;7.69;100.00;99173.91;5074607;28;20086;-51
2021/12/26 06:15:10;;;;;;;23.50;3.47;;;;;;;7.66;100.00;99166.22;5074075;28;20512;-51
2021/12/26 06:17:39;;;;;;;17.17;1.85;;;;;;;7.58;100.00;99167.59;5074676;28;20087;-50
2021/12/26 06:20:13;;;;;;;36.45;3.20;;;;;;;7.65;100.00;99175.94;5074005;28;20057;-51
2021/12/26 06:22:42;;;;;;;15.35;3.25;;;;;;;7.68;100.00;99175.69;5074461;28;20451;-51
2021/12/26 06:25:11;;;;;;;19.25;2.33;;;;;;;7.66;100.00;99172.31;5073871;28;20052;-50
2021/12/26 06:27:40;;;;;;;34.13;3.28;;;;;;;7.57;100.00;99175.63;5074444;28;20500;-51
2021/12/26 06:30:09;;;;;;;22.45;3.05;;;;;;;7.52;100.00;99168.03;5074479;28;20056;-51
2021/12/26 06:32:39;;;;;;;26.38;3.33;;;;;;;7.48;100.00;99152.53;5074513;28;20087;-51
2021/12/26 06:35:08;;;;;;;28.00;3.13;;;;;;;7.58;100.00;99166.75;5074168;28;20056;-51
2021/12/26 06:37:37;;;;;;;27.95;2.72;;;;;;;7.60;100.00;99172.78;5074083;28;20071;-51
2021/12/26 06:40:06;;;;;;;25.83;3.60;;;;;;;7.60;100.00;99175.41;5074354;28;20079;-51
2021/12/26 06:42:40;;;;;;;18.85;3.15;;;;;;;7.60;100.00;99191.25;5074053;28;20428;-51
2021/12/26 06:45:09;;;;;;;26.83;3.20;;;;;;;7.56;100.00;99195.03;5073757;28;20067;-52
2021/12/26 06:47:39;;;;;;;33.25;4.00;;;;;;;7.55;100.00;99199.50;5074468;28;20057;-51
2021/12/26 06:50:08;;;;;;;20.52;3.47;;;;;;;7.55;100.00;99210.03;5078397;28;20052;-51
2021/12/26 06:52:36;;;;;;;28.33;5.22;;;;;;;7.42;100.00;99215.31;5079211;28;20052;-52
2021/12/26 06:55:05;;;;;;;16.92;2.80;;;;;;;7.41;100.00;99212.78;5078503;28;20079;-49
2021/12/26 06:57:34;;;;;;;21.20;3.65;;;;;;;7.48;100.00;99218.47;5078271;28;20053;-51
2021/12/26 07:00:03;;;;;;;26.77;4.38;;;;;;;7.59;100.00;99215.94;5077944;28;20053;-50
2021/12/26 07:02:31;;;;;;;16.40;3.42;;;;;;;7.52;100.00;99204.97;5078171;28;20519;-51
2021/12/26 07:05:01;;;;;;;24.63;3.95;;;;;;;7.56;100.00;99206.44;5078748;28;20056;-50
2021/12/26 07:07:29;;;;;;;24.60;3.60;;;;;;;7.64;100.00;99213.81;5077699;28;20071;-49
2021/12/26 07:09:57;;;;;;;28.73;3.63;;;;;;;7.66;100.00;99206.63;5078062;28;20075;-51
2021/12/26 07:12:26;;;;;;;34.20;5.53;;;;;;;7.68;100.00;99204.72;5077666;28;20520;-50
2021/12/26 07:14:54;;;;;;;28.27;3.00;;;;;;;7.70;100.00;99213.41;5078407;28;20063;-49
2021/12/26 07:17:22;;;;;;;22.15;3.40;;;;;;;7.61;100.00;99208.75;5078731;28;20053;-50
2021/12/26 07:19:50;;;;;;;41.75;3.67;;;;;;;7.67;100.00;99203.06;5079050;28;20061;-51
2021/12/26 07:22:20;;;;;;;34.15;3.45;;;;;;;7.77;100.00;99206.72;5078377;28;20064;-50
2021/12/26 07:24:48;;;;;;;32.58;4.18;;;;;;;7.82;100.00;99201.97;5077925;28;20052;-49
2021/12/26 07:27:17;;;;;;;38.50;5.45;;;;;;;7.90;100.00;99197.91;5077578;28;20061;-51
2021/12/26 07:29:45;;;;;;;29.52;3.30;;;;;;;7.94;100.00;99199.41;5077327;28;20075;-50
2021/12/26 07:32:13;;;;;;;28.27;3.17;;;;;;;7.95;100.00;99195.78;5078095;28;20064;-51
2021/12/26 07:34:42;;;;;;;28.25;4.07;;;;;;;8.03;100.00;99198.72;5077000;28;20052;-48
2021/12/26 07:37:10;;;;;;;24.10;3.75;;;;;;;8.04;100.00;99195.13;5077475;28;20496;-50
2021/12/26 07:39:40;;;;;;;22.50;4.05;;;;;;;8.09;100.00;99200.94;5077801;28;20053;-51
2021/12/26 07:42:09;;;;;;;21.95;3.38;;;;;;;8.04;100.00;99194.31;5077658;28;20053;-50
2021/12/26 07:44:38;;;;;;;21.08;3.35;;;;;;;8.09;100.00;99200.09;5078246;28;20071;-51
2021/12/26 07:47:07;;;;;;;29.63;3.42;;;;;;;7.98;100.00;99206.13;5076914;28;20135;-50
2021/12/26 07:49:35;;;;;;;17.05;2.55;;;;;;;7.85;100.00;99194.75;5076952;28;20112;-50
2021/12/26 07:52:09;;;;;;;22.98;3.50;;;;;;;7.78;100.00;99184.66;5076952;28;20057;-49
2021/12/26 07:54:39;;;;;;;24.00;3.05;;;;;;;7.72;100.00;99192.19;5077463;28;20424;-50
2021/12/26 07:57:08;;;;;;;24.55;3.42;;;;;;;7.62;100.00;99189.34;5077672;28;20056;-49
2021/12/26 07:59:37;;;;;;;21.33;3.10;;;;;;;7.49;100.00;99188.53;5076018;28;20079;-51
2021/12/26 08:02:05;;;;;;;30.92;3.90;;;;;;;7.50;100.00;99198.09;5076736;28;20550;-51
2021/12/26 08:04:34;;;;;;;26.70;3.70;;;;;;;7.50;100.00;99216.56;5077870;28;20061;-50
2021/12/26 08:07:02;;;;;;;28.83;3.90;;;;;;;7.50;100.00;99216.56;5076598;28;20057;-50
2021/12/26 08:09:30;;;;;;;26.95;2.95;;;;;;;7.59;100.00;99210.66;5077019;28;20052;-49
2021/12/26 08:11:59;;;;;;;22.08;3.25;;;;;;;7.59;100.00;99221.22;5077430;28;20056;-51
2021/12/26 08:14:28;;;;;;;20.33;3.50;;;;;;;7.51;100.00;99215.63;5076273;28;20064;-50
2021/12/26 08:16:56;;;;;;;24.88;3.65;;;;;;;7.52;100.00;99214.69;5076789;28;20060;-51
2021/12/26 08:19:25;;;;;;;27.88;3.97;;;;;;;7.51;100.00;99213.00;5076548;28;20099;-51
2021/12/26 08:21:54;;;;;;;20.73;3.58;;;;;;;7.43;100.00;99211.75;5077284;28;20052;-52
2021/12/26 08:24:25;;;;;;;27.67;3.15;;;;;;;7.54;100.00;99218.06;5077030;28;20067;-48
2021/12/26 08:26:53;;;;;;;28.73;3.60;;;;;;;7.62;100.00;99221.00;5076912;28;20067;-50
2021/12/26 08:29:23;;;;;;;22.10;4.40;;;;;;;7.66;100.00;99214.56;5077129;28;20481;-51
2021/12/26 08:31:56;;;;;;;24.55;4.15;;;;;;;7.67;100.00;99223.34;5076601;28;20057;-51
2021/12/26 08:34:25;;;;;;;29.35;4.78;;;;;;;7.68;100.00;99225.84;5075958;28;20099;-51
2021/12/26 08:36:59;;;;;;;17.48;4.15;;;;;;;7.72;100.00;99232.59;5075952;28;20500;-49
2021/12/26 08:39:28;;;;;;;29.38;5.43;;;;;;;7.87;100.00;99241.25;5075848;28;20063;-50
2021/12/26 08:41:57;;;;;;;29.70;3.22;;;;;;;7.83;100.00;99231.84;5076313;28;20423;-49
2021/12/26 08:44:25;;;;;;;19.65;3.80;;;;;;;7.81;100.00;99236.38;5076612;28;20057;-51
2021/12/26 08:46:55;;;;;;;24.00;3.50;;;;;;;7.99;100.00;99250.09;5076146;28;20057;-51
2021/12/26 08:49:23;;;;;;;21.80;2.75;;;;;;;8.08;100.00;99248.56;5076213;28;20080;-50
2021/12/26 08:51:51;;;;;;;14.43;3.30;;;;;;;8.26;100.00;99257.81;5076122;28;20060;-51
2021/12/26 08:54:21;;;;;;;22.95;3.30;;;;;;;8.40;100.00;99248.88;5075544;28;20063;-49
2021/12/26 08:56:50;;;;;;;22.73;3.38;;;;;;;8.57;100.00;99252.13;5076571;28;20067;-51
2021/12/26 08:59:21;;;;;;;22.83;3.22;;;;;;;8.70;100.00;99250.25;5076334;28;20061;-51
2021/12/26 09:01:50;;;;;;;19.23;2.90;;;;;;;8.87;100.00;99255.13;5075620;28;20531;-51
2021/12/26 09:04:19;;;;;;;21.30;3.33;;;;;;;8.92;100.00;99247.69;5075327;28;20056;-49
2021/12/26 09:06:48;;;;;;;26.88;3.60;;;;;;;9.09;100.00;99262.31;5075410;28;20504;-50
2021/12/26 09:09:16;;;;;;;16.50;2.53;;;;;;;9.21;100.00;99263.19;5075449;28;20052;-50
2021/12/26 09:11:44;;;;;;;20.10;2.97;;;;;;;9.33;100.00;99264.03;5075493;28;20063;-48
2021/12/26 09:14:13;;;;;;;20.52;3.47;;;;;;;9.28;100.00;99261.75;5076584;28;20068;-51
2021/12/26 09:16:42;;;;;;;19.25;2.58;;;;;;;9.29;100.00;99263.41;5075308;28;20061;-51
2021/12/26 09:19:10;;;;;;;22.25;4.50;;;;;;;9.32;100.00;99267.63;5075697;28;20057;-49
2021/12/26 09:21:40;;;;;;;17.73;2.92;;;;;;;9.30;100.00;99266.91;5075218;28;20065;-50
2021/12/26 09:24:08;;;;;;;24.42;3.85;;;;;;;9.31;100.00;99271.22;5075572;28;20083;-51
2021/12/26 09:26:36;;;;;;;16.83;2.67;;;;;;;9.36;100.00;99284.13;5075415;28;20056;-50
2021/12/26 09:29:05;;;;;;;16.77;3.15;;;;;;;9.39;100.00;99289.19;5075872;28;20082;-50
2021/12/26 09:31:33;;;;;;;16.70;3.45;;;;;;;9.47;100.00;99281.50;5075302;28;20052;-51
2021/12/26 09:34:01;;;;;;;19.48;3.20;;;;;;;9.57;100.00;99279.00;5076158;28;20420;-49
2021/12/26 09:36:29;;;;;;;18.92;4.95;;;;;;;9.63;100.00;99289.94;5075146;28;20492;-50
2021/12/26 09:38:59;;;;;;;24.50;3.47;;;;;;;9.74;100.00;99288.25;5074872;28;20062;-51
2021/12/26 09:41:27;;;;;;;17.20;3.83;;;;;;;9.77;100.00;99288.03;5074791;28;20527;-49
2021/12/26 09:43:55;;;;;;;18.00;3.97;;;;;;;9.74;100.00;99282.97;5074544;28;20079;-49
2021/12/26 09:46:24;;;;;;;11.95;3.42;;;;;;;9.66;100.00;99294.97;5075866;28;20053;-51
2021/12/26 09:48:52;;;;;;;20.95;3.72;;;;;;;9.61;100.00;99288.38;5075107;28;20393;-51
2021/12/26 09:51:20;;;;;;;17.08;3.20;;;;;;;9.57;100.00;99293.06;5074890;28;20052;-49
2021/12/26 09:53:48;;;;;;;10.82;2.58;;;;;;;9.60;100.00;99287.53;5075246;28;20060;-51
2021/12/26 09:56:18;;;;;;;19.75;2.55;;;;;;;9.63;100.00;99289.09;5074839;28;20067;-51
2021/12/26 09:58:55;;;;;;;13.05;2.50;;;;;;;9.70;100.00;99286.81;5075012;28;20063;-51
2021/12/26 10:01:31;;;;;;;14.40;2.58;;;;;;;9.70;100.00;99286.81;5075140;28;20057;-51
2021/12/26 10:04:01;;;;;;;18.55;2.22;;;;;;;9.83;100.00;99284.88;5074141;28;20052;-51
2021/12/26 10:06:33;;;;;;;18.25;3.42;;;;;;;9.90;100.00;99293.19;5074401;28;20056;-49
2021/12/26 10:09:05;;;;;;;17.13;3.25;;;;;;;9.96;100.00;99298.84;5074390;28;20056;-51
2021/12/26 10:11:37;;;;;;;15.60;2.63;;;;;;;10.02;100.00;99287.78;5075250;28;20059;-51
2021/12/26 10:14:07;;;;;;;16.80;3.00;;;;;;;9.97;100.00;99278.50;5074430;28;20422;-51
2021/12/26 10:16:38;;;;;;;15.80;2.70;;;;;;;10.20;100.00;99290.78;5074617;28;20055;-53
2021/12/26 10:19:07;;;;;;;17.38;2.35;;;;;;;10.27;100.00;99291.13;5074610;28;20068;-51
2021/12/26 10:21:39;;;;;;;17.83;3.25;;;;;;;10.47;100.00;99280.75;5074239;28;20067;-51
2021/12/26 10:24:17;;;;;;;19.35;2.80;;;;;;;10.67;100.00;99277.31;5074270;28;20059;-51
2021/12/26 10:26:49;;;;;;;18.75;3.95;;;;;;;10.98;100.00;99285.41;5074215;28;20419;-52
2021/12/26 10:29:18;;;;;;;;;;;;;;;12.26;100.00;99279.81;5074566;28;20067;-51
2021/12/26 10:31:59;;;;;;;14.00;2.60;;;;;;;14.88;89.71;99289.13;5074685;28;20361;-52
2021/12/26 10:34:31;;;;;;;16.27;3.00;;;;;;;16.46;77.49;99285.47;5074563;28;20056;-51
2021/12/26 10:37:01;;;;;;;9.93;2.10;;;;;;;16.42;75.02;99284.09;5074680;28;20060;-49
2021/12/26 10:39:32;;;;;;;14.00;2.25;;;;;;;16.53;75.68;99286.47;5074922;28;20056;-49
2021/12/26 10:42:05;;;;;;;10.27;1.77;;;;;;;17.35;70.30;99285.72;5073817;28;20053;-49
2021/12/26 10:44:36;;;;;;;14.93;2.35;;;;;;;18.15;66.72;99277.69;5073727;28;20057;-49
2021/12/26 10:47:08;;;;;;;12.20;2.60;;;;;;;18.88;62.58;99267.56;5075182;28;20052;-49
2021/12/26 10:49:42;;;;;;;8.20;2.08;;;;;;;18.55;64.56;99261.56;5074334;28;20481;-52
2021/12/26 10:52:17;;;;;;;9.15;2.70;;;;;;;18.07;66.58;99253.59;5073717;28;20052;-50
2021/12/26 10:54:50;;;;;;;6.90;2.15;;;;;;;18.07;66.58;99253.59;5074842;28;20404;-51
2021/12/26 10:57:23;;;;;;;5.85;2.00;;;;;;;20.48;56.10;99266.41;5074344;28;20049;-49
2021/12/26 11:00:10;;;;;;;10.23;2.00;;;;;;;20.94;55.07;99252.63;5074507;28;20060;-52
2021/12/26 11:02:41;;;;;;;7.30;1.52;;;;;;;22.03;52.40;99247.81;5074678;28;20487;-51
2021/12/26 11:05:12;;;;;;;8.32;2.35;;;;;;;22.03;52.40;99247.81;5073536;28;20555;-50
2021/12/26 11:07:44;;;;;;;10.52;1.52;;;;;;;23.16;46.58;99240.03;5073736;28;20053;-50
2021/12/26 11:10:16;;;;;;;8.77;2.30;;;;;;;23.55;47.13;99248.31;5074696;28;20057;-51
2021/12/26 11:12:50;;;;;;;6.35;1.80;;;;;;;23.55;46.04;99240.19;5073470;28;20136;-50
2021/12/26 11:15:21;;;;;;;7.22;2.20;;;;;;;23.36;45.00;99240.00;5074629;28;20052;-50
2021/12/26 11:17:54;;;;;;;11.02;2.45;;;;;;;21.93;48.82;99228.47;5074111;28;20060;-51
2021/12/26 11:20:32;;;;;;;6.53;1.67;;;;;;;20.88;51.80;99220.22;5074801;28;20083;-52
2021/12/26 11:23:09;;;;;;;10.05;2.05;;;;;;;19.57;55.54;99218.22;5074235;28;20484;-50
2021/12/26 11:25:40;;;;;;;4.03;1.27;;;;;;;18.71;58.23;99217.63;5073347;28;20096;-52
2021/12/26 11:28:11;;;;;;;6.47;1.50;;;;;;;17.40;62.05;99203.81;5073958;28;20056;-50
2021/12/26 11:30:39;;;;;;;5.43;1.70;;;;;;;16.51;66.04;99203.66;5073346;28;20053;-50
2021/12/26 11:33:08;;;;;;;7.40;1.40;;;;;;;16.49;66.07;99210.16;5073771;28;20068;-50
2021/12/26 11:35:39;;;;;;;6.85;1.52;;;;;;;16.54;66.01;99207.84;5076841;28;20057;-50
2021/12/26 11:38:10;;;;;;;9.18;1.95;;;;;;;16.18;67.65;99221.47;5077001;28;20065;-50
2021/12/26 11:40:41;;;;;;;5.53;1.50;;;;;;;16.04;68.86;99217.59;5077155;28;20056;-50